This is the latest recevied weather packets stored in our database for station/object 9M4GHZ-13. If no packets are shown the sender has not sent any weather packets the latest 10 day(s).
| Time | Temp. | Humidity | Pressure | Rain* | Wind** | Luminosity | Snow |
|---|---|---|---|---|---|---|---|
| 1777797004 | 31.67° C | 64% | 1005.2 hPa | - | - | - | - |
| 1777796404 | 32.22° C | 62% | 1005.2 hPa | - | - | - | - |
| 1777795804 | 32.22° C | 61% | 1005.4 hPa | - | - | - | - |
| 1777795204 | 32.78° C | 59% | 1005.5 hPa | - | - | - | - |
| 1777794604 | 32.78° C | 59% | 1005.6 hPa | - | - | - | - |
| 1777794006 | 32.22° C | 60% | 1005.5 hPa | - | - | - | - |
| 1777793405 | 32.78° C | 59% | 1005.8 hPa | - | - | - | - |
| 1777792804 | 32.78° C | 57% | 1005.9 hPa | - | - | - | - |
| 1777792205 | 32.78° C | 59% | 1005.8 hPa | - | - | - | - |
| 1777791605 | 32.78° C | 59% | 1006.3 hPa | - | - | - | - |
| 1777791004 | 32.78° C | 59% | 1006.3 hPa | - | - | - | - |
| 1777790404 | 32.78° C | 59% | 1006.6 hPa | - | - | - | - |
| 1777789804 | 32.78° C | 59% | 1006.7 hPa | - | - | - | - |
| 1777789204 | 32.78° C | 60% | 1006.9 hPa | - | - | - | - |
| 1777788605 | 33.33° C | 60% | 1007 hPa | - | - | - | - |
| 1777788005 | 32.78° C | 65% | 1007.3 hPa | - | - | - | - |
| 1777787403 | 32.78° C | 63% | 1007.5 hPa | - | - | - | - |
| 1777786805 | 31.67° C | 65% | 1007.7 hPa | - | - | - | - |
| 1777786206 | 31.67° C | 67% | 1007.9 hPa | - | - | - | - |
| 1777785605 | 32.22° C | 65% | 1008 hPa | - | - | - | - |
| 1777785005 | 33.33° C | 61% | 1008.2 hPa | - | - | - | - |
| 1777784405 | 32.78° C | 63% | 1008.5 hPa | - | - | - | - |
| 1777783805 | 32.78° C | 63% | 1008.6 hPa | - | - | - | - |
| 1777783205 | 32.78° C | 64% | 1008.9 hPa | - | - | - | - |
| 1777782604 | 32.78° C | 64% | 1008.9 hPa | - | - | - | - |
* Rain since midnight (hover to see other rain measurements)
** Current wind speed in m/s (hover to see current wind gust speed)